Time;durP1;ratioP1;P1;durP2;ratioP2;P2;SDS_P1;SDS_P2;PMS_P1;PMS_P2;Temp;Humidity;BMP_temperature;BMP_pressure;BME280_temperature;BME280_humidity;BME280_pressure;Samples;Min_cycle;Max_cycle;Signal;HPM_P1;HPM_P2
2022/02/12 00:02:07;;;;;;;;;;;-3275.30;96.80;;;;;;4933547;29;20561;-85
2022/02/12 00:04:32;;;;;;;;;;;-3275.40;97.00;;;;;;4923725;29;19911;-85
2022/02/12 00:06:58;;;;;;;;;;;-3275.40;97.00;;;;;;4934205;29;19911;-85
2022/02/12 00:09:24;;;;;;;;;;;-3275.40;96.90;;;;;;4932412;28;19911;-85
2022/02/12 00:11:49;;;;;;;;;;;-3275.50;97.00;;;;;;4934898;29;19910;-85
2022/02/12 00:14:15;;;;;;;;;;;-3275.40;96.90;;;;;;4925360;29;19918;-85
2022/02/12 00:16:40;;;;;;;;;;;-3275.50;96.90;;;;;;4932753;29;20440;-85
2022/02/12 00:19:06;;;;;;;;;;;-3275.40;96.90;;;;;;4924618;29;20384;-85
2022/02/12 00:21:31;;;;;;;;;;;-3275.50;97.00;;;;;;4935919;29;20383;-85
2022/02/12 00:23:57;;;;;;;;;;;-3275.50;96.90;;;;;;4934457;29;19911;-85
2022/02/12 00:26:22;;;;;;;;;;;-3275.50;96.90;;;;;;4935749;29;19917;-85
2022/02/12 00:28:48;;;;;;;;;;;-3275.50;96.90;;;;;;4935807;29;19918;-85
2022/02/12 00:31:13;;;;;;;;;;;-3275.50;96.90;;;;;;4924314;29;19914;-85
2022/02/12 00:33:39;;;;;;;;;;;-3275.50;96.90;;;;;;4934057;29;19915;-85
2022/02/12 00:36:04;;;;;;;;;;;-3275.40;96.90;;;;;;4944211;29;19957;-85
2022/02/12 00:38:30;;;;;;;;;;;-3275.50;96.90;;;;;;4935958;29;19910;-85
2022/02/12 00:40:55;;;;;;;;;;;-3275.50;97.00;;;;;;4944881;29;19910;-85
2022/02/12 00:43:23;;;;;;;;;;;-3275.60;97.00;;;;;;4936955;29;20679;-85
2022/02/12 00:45:49;;;;;;;;;;;-3275.50;96.90;;;;;;4934706;29;19962;-85
2022/02/12 00:48:14;;;;;;;;;;;-3275.50;96.90;;;;;;4937166;29;20401;-85
2022/02/12 00:50:40;;;;;;;;;;;-3275.50;97.00;;;;;;4929432;29;19911;-86
2022/02/12 00:53:05;;;;;;;;;;;-3275.50;96.90;;;;;;4931733;29;19911;-85
2022/02/12 00:55:31;;;;;;;;;;;-3275.50;96.90;;;;;;4935245;29;19929;-85
2022/02/12 00:57:56;;;;;;;;;;;-3275.40;96.90;;;;;;4934716;29;19937;-85
2022/02/12 01:00:24;;;;;;;;;;;-3275.60;97.00;;;;;;4930924;29;19911;-85
2022/02/12 01:02:50;;;;;;;;;;;-3275.50;97.00;;;;;;4941463;29;19910;-85
2022/02/12 01:05:15;;;;;;;;;;;-3275.60;97.00;;;;;;4927729;29;19934;-85
2022/02/12 01:07:41;;;;;;;;;;;-3275.40;96.90;;;;;;4923716;29;19926;-85
2022/02/12 01:10:07;;;;;;;;;;;-3275.50;97.00;;;;;;4925973;29;19976;-85
2022/02/12 01:12:33;;;;;;;;;;;-3275.40;96.90;;;;;;4933136;29;19914;-85
2022/02/12 01:14:58;;;;;;;;;;;-3275.60;97.00;;;;;;4926438;29;20315;-85
2022/02/12 01:17:25;;;;;;;;;;;-3275.50;96.90;;;;;;4937125;29;19915;-85
2022/02/12 01:19:52;;;;;;;;;;;-3275.50;97.00;;;;;;4920473;29;19915;-85
2022/02/12 01:22:17;;;;;;;;;;;-3275.50;97.00;;;;;;4924220;29;19966;-85
2022/02/12 01:24:43;;;;;;;;;;;-3275.50;96.90;;;;;;4935160;29;19915;-85
2022/02/12 01:27:08;;;;;;;;;;;-3275.40;96.90;;;;;;4924554;29;19910;-85
2022/02/12 01:29:34;;;;;;;;;;;-3275.30;96.80;;;;;;4944499;29;19918;-85
2022/02/12 01:32:04;;;;;;;;;;;-3275.30;96.90;;;;;;4931574;29;19931;-85
2022/02/12 01:34:30;;;;;;;;;;;-3275.40;96.90;;;;;;4930409;29;19911;-85
2022/02/12 01:36:56;;;;;;;;;;;-3275.40;96.90;;;;;;4933954;28;19918;-84
2022/02/12 01:39:21;;;;;;;;;;;-3275.50;96.90;;;;;;4924875;29;20442;-85
2022/02/12 01:41:47;;;;;;;;;;;-3275.50;97.00;;;;;;4937552;29;19911;-85
2022/02/12 01:44:12;;;;;;;;;;;-3275.60;97.00;;;;;;4927005;29;20374;-84
2022/02/12 01:46:38;;;;;;;;;;;-3275.70;96.90;;;;;;4926166;29;20438;-85
2022/02/12 01:49:04;;;;;;;;;;;-3275.70;96.90;;;;;;4932094;29;19936;-85
2022/02/12 01:51:29;;;;;;;;;;;-3275.90;97.00;;;;;;4925741;29;19910;-85
2022/02/12 01:53:55;;;;;;;;;;;-3275.90;96.90;;;;;;4926764;29;19915;-85
2022/02/12 01:56:21;;;;;;;;;;;-3276.00;96.90;;;;;;4930415;29;19950;-85
2022/02/12 01:58:47;;;;;;;;;;;-3276.00;96.80;;;;;;4926703;29;19943;-85
2022/02/12 02:01:13;;;;;;;;;;;-3276.00;96.80;;;;;;4930614;29;20425;-85
2022/02/12 02:03:39;;;;;;;;;;;-3276.10;96.80;;;;;;4926917;29;19910;-85
2022/02/12 02:06:05;;;;;;;;;;;-3276.10;96.80;;;;;;4932439;29;20379;-85
2022/02/12 02:08:30;;;;;;;;;;;-3276.20;96.80;;;;;;4918909;29;19930;-85
2022/02/12 02:10:56;;;;;;;;;;;-3276.20;96.70;;;;;;4916864;29;19911;-85
2022/02/12 02:13:25;;;;;;;;;;;-3276.30;96.70;;;;;;4937834;28;19929;-85
2022/02/12 02:15:51;;;;;;;;;;;-3276.30;96.70;;;;;;4925436;29;20401;-85
2022/02/12 02:18:17;;;;;;;;;;;-3276.30;96.60;;;;;;4929315;29;19918;-85
2022/02/12 02:20:42;;;;;;;;;;;-3276.30;96.60;;;;;;4927980;29;20378;-85
2022/02/12 02:23:08;;;;;;;;;;;-3276.40;96.60;;;;;;4933788;29;19910;-85
2022/02/12 02:25:33;;;;;;;;;;;-3276.40;96.60;;;;;;4928577;28;19911;-85
2022/02/12 02:27:59;;;;;;;;;;;-3276.40;96.50;;;;;;4952243;28;19945;-85
2022/02/12 02:30:27;;;;;;;;;;;-3276.40;96.40;;;;;;4934503;29;19925;-85
2022/02/12 02:32:52;;;;;;;;;;;-3276.40;96.40;;;;;;4929274;29;19911;-85
2022/02/12 02:35:19;;;;;;;;;;;-3276.40;96.30;;;;;;4922694;29;19922;-85
2022/02/12 02:37:45;;;;;;;;;;;-3276.40;96.30;;;;;;4933086;29;19914;-85
2022/02/12 02:40:17;;;;;;;;;;;-3276.50;96.30;;;;;;4931647;29;19969;-85
2022/02/12 02:42:44;;;;;;;;;;;-3276.50;96.30;;;;;;4931709;29;20288;-85
2022/02/12 02:45:10;;;;;;;;;;;-3276.50;96.20;;;;;;4926152;29;19911;-85
2022/02/12 02:47:42;;;;;;;;;;;-3276.50;96.20;;;;;;4924289;29;20006;-85
2022/02/12 02:56:01;;;;;;;;;;;-3276.50;96.00;;;;;;4928590;29;20394;-85
2022/02/12 02:58:36;;;;;;;;;;;-3276.50;96.00;;;;;;4931269;29;19911;-85
2022/02/12 03:01:03;;;;;;;;;;;-3276.50;95.90;;;;;;4929815;29;19915;-85
2022/02/12 03:03:32;;;;;;;;;;;-3276.50;95.90;;;;;;4932392;29;19962;-85
2022/02/12 03:05:58;;;;;;;;;;;-3276.50;95.80;;;;;;4924277;29;20278;-85
2022/02/12 03:08:24;;;;;;;;;;;-3276.50;95.80;;;;;;4931238;29;19910;-85
2022/02/12 03:10:49;;;;;;;;;;;-3276.50;95.70;;;;;;4918077;29;19943;-85
2022/02/12 03:13:15;;;;;;;;;;;-3276.50;95.80;;;;;;4930573;29;19942;-85
2022/02/12 03:15:40;;;;;;;;;;;-3276.50;95.70;;;;;;4926337;29;20407;-85
2022/02/12 03:18:06;;;;;;;;;;;-3276.50;95.70;;;;;;4927857;29;19910;-85
2022/02/12 03:20:32;;;;;;;;;;;-3276.60;95.60;;;;;;4926289;29;20011;-85
2022/02/12 03:22:57;;;;;;;;;;;-3276.60;95.70;;;;;;4928490;29;20006;-85
2022/02/12 03:25:23;;;;;;;;;;;-3276.60;95.60;;;;;;4925576;29;19911;-85
2022/02/12 03:27:52;;;;;;;;;;;-3276.60;95.60;;;;;;4932863;29;20274;-85
2022/02/12 03:30:18;;;;;;;;;;;-3276.60;95.60;;;;;;4929142;29;19975;-85
2022/02/12 03:32:43;;;;;;;;;;;-3276.60;95.50;;;;;;4958191;28;19915;-85
2022/02/12 03:35:08;;;;;;;;;;;-3276.70;95.50;;;;;;4946206;28;20297;-85
2022/02/12 03:37:34;;;;;;;;;;;-3276.70;95.30;;;;;;4940556;29;20354;-85
2022/02/12 03:39:59;;;;;;;;;;;-3276.70;95.30;;;;;;4937829;29;20001;-85
2022/02/12 03:42:25;;;;;;;;;;;-3276.60;95.20;;;;;;4935606;29;19949;-85
2022/02/12 03:44:51;;;;;;;;;;;-3276.60;95.10;;;;;;4938354;29;19993;-85
2022/02/12 03:47:16;;;;;;;;;;;-3276.50;95.10;;;;;;4924837;29;19984;-85
2022/02/12 03:49:43;;;;;;;;;;;-3276.60;95.00;;;;;;4927582;29;19958;-85
2022/02/12 03:52:09;;;;;;;;;;;-3276.60;95.00;;;;;;4926332;29;19915;-85
2022/02/12 03:54:34;;;;;;;;;;;-3276.50;94.90;;;;;;4936164;29;20268;-85
2022/02/12 03:57:00;;;;;;;;;;;-3276.50;94.90;;;;;;4933613;29;19985;-85
2022/02/12 03:59:25;;;;;;;;;;;-3276.60;94.90;;;;;;4926671;29;20274;-85
2022/02/12 04:01:51;;;;;;;;;;;-3276.60;94.80;;;;;;4930913;29;19911;-85
2022/02/12 04:04:16;;;;;;;;;;;-3276.60;94.80;;;;;;4926419;29;20394;-85
2022/02/12 04:06:41;;;;;;;;;;;-3276.60;94.80;;;;;;4932167;29;20392;-85
2022/02/12 04:09:07;;;;;;;;;;;-3276.60;94.70;;;;;;4934314;29;19911;-86
2022/02/12 04:11:32;;;;;;;;;;;-3276.60;94.70;;;;;;4934299;29;19915;-86
2022/02/12 04:13:58;;;;;;;;;;;-3276.60;94.70;;;;;;4927260;29;19959;-85
2022/02/12 04:16:23;;;;;;;;;;;-3276.60;94.70;;;;;;4924714;29;19911;-85
2022/02/12 04:18:49;;;;;;;;;;;-3276.50;94.70;;;;;;4932409;29;20009;-85
2022/02/12 04:21:15;;;;;;;;;;;-3276.50;94.60;;;;;;4940873;29;19922;-85
2022/02/12 04:23:40;;;;;;;;;;;-3276.50;94.70;;;;;;4940092;29;19993;-85
2022/02/12 04:26:08;;;;;;;;;;;-3276.40;94.70;;;;;;4931276;29;19955;-85
2022/02/12 04:28:36;;;;;;;;;;;-3276.40;94.60;;;;;;4923771;29;19918;-85
2022/02/12 04:31:05;;;;;;;;;;;-3276.40;94.60;;;;;;4919468;29;19997;-85
2022/02/12 04:33:31;;;;;;;;;;;-3276.40;94.70;;;;;;4950746;28;19915;-85
2022/02/12 04:35:56;;;;;;;;;;;-3276.30;94.60;;;;;;4927296;29;20018;-85
2022/02/12 04:38:22;;;;;;;;;;;-3276.30;94.70;;;;;;4938157;29;19997;-85
2022/02/12 04:40:48;;;;;;;;;;;-3276.20;94.60;;;;;;4934320;29;19917;-85
2022/02/12 04:43:13;;;;;;;;;;;-3276.10;94.50;;;;;;4943170;29;20009;-85
2022/02/12 04:45:39;;;;;;;;;;;-3276.10;94.70;;;;;;4935203;29;20355;-85
2022/02/12 04:48:05;;;;;;;;;;;-3276.00;94.60;;;;;;4926467;29;19935;-85
2022/02/12 04:50:30;;;;;;;;;;;-3276.00;94.70;;;;;;4933037;29;19914;-85
2022/02/12 04:52:56;;;;;;;;;;;-3276.00;94.80;;;;;;4933635;29;20275;-85
2022/02/12 04:55:21;;;;;;;;;;;-3276.00;94.80;;;;;;4935240;29;20386;-85
2022/02/12 04:57:46;;;;;;;;;;;-3275.90;94.70;;;;;;4936087;29;19934;-85
2022/02/12 05:00:12;;;;;;;;;;;-3275.90;94.80;;;;;;4925901;29;19957;-85
2022/02/12 05:02:41;;;;;;;;;;;-3275.80;94.80;;;;;;4935076;29;19914;-85
2022/02/12 05:05:07;;;;;;;;;;;-3275.80;94.90;;;;;;4926520;29;19915;-85
2022/02/12 05:07:32;;;;;;;;;;;-3275.80;94.90;;;;;;4928898;29;19926;-86
2022/02/12 05:09:58;;;;;;;;;;;-3275.80;95.00;;;;;;4931825;29;19910;-85
2022/02/12 05:12:24;;;;;;;;;;;-3275.80;95.00;;;;;;4929662;29;19915;-85
2022/02/12 05:14:50;;;;;;;;;;;-3275.70;95.00;;;;;;4933733;29;19931;-85
2022/02/12 05:17:15;;;;;;;;;;;-3275.80;95.10;;;;;;4933150;29;19914;-85
2022/02/12 05:19:41;;;;;;;;;;;-3275.70;95.10;;;;;;4926944;29;20290;-85
2022/02/12 05:22:07;;;;;;;;;;;-3275.70;95.20;;;;;;4955261;28;19911;-85
2022/02/12 05:24:32;;;;;;;;;;;-3275.70;95.20;;;;;;4927554;29;20009;-85
2022/02/12 05:26:58;;;;;;;;;;;-3275.70;95.30;;;;;;4938300;29;19910;-85
2022/02/12 05:29:23;;;;;;;;;;;-3275.70;95.20;;;;;;4939999;29;19957;-85
2022/02/12 05:31:49;;;;;;;;;;;-3275.80;95.30;;;;;;4936822;29;19914;-85
2022/02/12 05:34:15;;;;;;;;;;;-3275.90;95.40;;;;;;4922316;29;19925;-85
2022/02/12 05:36:40;;;;;;;;;;;-3275.80;95.30;;;;;;4942159;29;20363;-85
2022/02/12 05:39:09;;;;;;;;;;;-3275.70;95.20;;;;;;4926764;29;19933;-85
2022/02/12 05:41:34;;;;;;;;;;;-3275.70;95.20;;;;;;4933978;29;19961;-85
2022/02/12 05:43:59;;;;;;;;;;;-3275.70;95.30;;;;;;4925821;29;19957;-85
2022/02/12 05:46:25;;;;;;;;;;;-3275.60;95.20;;;;;;4939948;28;19915;-85
2022/02/12 05:48:50;;;;;;;;;;;-3275.60;95.30;;;;;;4937767;29;19915;-85
2022/02/12 05:51:21;;;;;;;;;;;-3275.50;95.30;;;;;;4923426;29;19911;-85
2022/02/12 05:53:47;;;;;;;;;;;-3275.50;95.40;;;;;;4924493;29;20369;-84
2022/02/12 05:56:12;;;;;;;;;;;-3275.50;95.40;;;;;;4932697;29;20017;-84
2022/02/12 05:58:37;;;;;;;;;;;-3275.60;95.50;;;;;;4933356;29;20011;-84
2022/02/12 06:01:03;;;;;;;;;;;-3275.50;95.40;;;;;;4927820;29;19910;-84
2022/02/12 06:03:28;;;;;;;;;;;-3275.60;95.50;;;;;;4931885;29;19962;-85
2022/02/12 06:05:54;;;;;;;;;;;-3275.60;95.50;;;;;;4937921;29;19969;-84
2022/02/12 06:08:19;;;;;;;;;;;-3275.60;95.60;;;;;;4924891;29;19911;-84
2022/02/12 06:10:45;;;;;;;;;;;-3275.60;95.50;;;;;;4925824;29;19911;-84
2022/02/12 06:13:10;;;;;;;;;;;-3275.60;95.50;;;;;;4930076;29;19915;-84
2022/02/12 06:15:36;;;;;;;;;;;-3275.60;95.40;;;;;;4935980;28;20010;-84
2022/02/12 06:18:03;;;;;;;;;;;-3275.50;95.40;;;;;;4933876;29;19914;-84
2022/02/12 06:20:28;;;;;;;;;;;-3275.50;95.50;;;;;;4930737;29;19918;-85
2022/02/12 06:22:54;;;;;;;;;;;-3275.50;95.50;;;;;;4922229;29;19914;-85
2022/02/12 06:25:19;;;;;;;;;;;-3275.60;95.50;;;;;;4928901;29;19910;-84
2022/02/12 06:27:46;;;;;;;;;;;-3275.60;95.50;;;;;;4925442;29;20403;-84
2022/02/12 06:30:11;;;;;;;;;;;-3275.50;95.40;;;;;;4941203;29;19961;-84
2022/02/12 06:32:37;;;;;;;;;;;-3275.60;95.50;;;;;;4922406;29;19938;-84
2022/02/12 06:35:02;;;;;;;;;;;-3275.60;95.40;;;;;;4932628;29;20516;-84
2022/02/12 06:37:28;;;;;;;;;;;-3275.70;95.40;;;;;;4937233;29;19954;-84
2022/02/12 06:39:54;;;;;;;;;;;-3275.60;95.20;;;;;;4917560;29;19915;-83
2022/02/12 06:42:20;;;;;;;;;;;-3275.60;95.20;;;;;;4931803;29;19911;-83
2022/02/12 06:44:45;;;;;;;;;;;-3275.60;95.20;;;;;;4930171;29;19911;-83
2022/02/12 06:47:11;;;;;;;;;;;-3275.60;95.20;;;;;;4946671;28;19921;-85
2022/02/12 06:49:36;;;;;;;;;;;-3275.60;95.10;;;;;;4925510;29;23293;-85
2022/02/12 06:52:03;;;;;;;;;;;-3275.70;95.10;;;;;;4929215;29;19946;-85
2022/02/12 06:54:28;;;;;;;;;;;-3275.60;95.00;;;;;;4929180;29;19915;-84
2022/02/12 06:56:54;;;;;;;;;;;-3275.60;94.90;;;;;;4927677;29;19915;-84
2022/02/12 06:59:19;;;;;;;;;;;-3275.60;94.90;;;;;;4927438;29;19911;-84
2022/02/12 07:01:44;;;;;;;;;;;-3275.60;95.00;;;;;;4938705;29;19942;-84
2022/02/12 07:04:10;;;;;;;;;;;-3275.60;95.00;;;;;;4939113;29;19910;-84
2022/02/12 07:06:36;;;;;;;;;;;-3275.60;95.00;;;;;;4931757;29;19911;-85
2022/02/12 07:09:03;;;;;;;;;;;-3275.60;95.00;;;;;;4928639;29;20005;-85
2022/02/12 07:11:29;;;;;;;;;;;-3275.60;95.00;;;;;;4931685;29;19910;-85
2022/02/12 07:13:55;;;;;;;;;;;-3275.70;94.90;;;;;;4931352;29;20038;-85
2022/02/12 07:16:20;;;;;;;;;;;-3275.70;94.90;;;;;;4930364;29;20370;-84
2022/02/12 07:18:47;;;;;;;;;;;-3275.70;94.80;;;;;;4932223;29;19918;-84
2022/02/12 07:21:12;;;;;;;;;;;-3275.70;94.80;;;;;;4925389;29;19915;-84
2022/02/12 07:23:37;;;;;;;;;;;-3275.80;94.90;;;;;;4931879;29;19929;-84
2022/02/12 07:26:03;;;;;;;;;;;-3275.80;94.80;;;;;;4922310;29;19997;-83
2022/02/12 07:28:29;;;;;;;;;;;-3275.80;94.60;;;;;;4934021;29;19907;-84
2022/02/12 07:30:55;;;;;;;;;;;-3275.80;94.60;;;;;;4930203;29;19951;-85
2022/02/12 07:33:21;;;;;;;;;;;-3275.80;94.60;;;;;;4924839;29;19986;-84
2022/02/12 07:35:49;;;;;;;;;;;-3275.90;94.50;;;;;;4948390;29;19915;-84
2022/02/12 07:38:15;;;;;;;;;;;-3276.00;94.40;;;;;;4927542;29;19922;-84
2022/02/12 07:40:41;;;;;;;;;;;-3276.00;94.30;;;;;;4936677;28;19915;-84
2022/02/12 07:43:06;;;;;;;;;;;-3276.00;94.20;;;;;;4921824;29;19966;-84
2022/02/12 07:45:32;;;;;;;;;;;-3276.00;94.10;;;;;;4924844;29;20009;-84
2022/02/12 07:47:58;;;;;;;;;;;-3276.10;94.00;;;;;;4924846;29;19911;-84
2022/02/12 07:50:23;;;;;;;;;;;-3276.10;93.90;;;;;;4938395;29;20347;-83
2022/02/12 07:52:49;;;;;;;;;;;-3276.20;93.90;;;;;;4931374;29;19911;-83
2022/02/12 07:55:15;;;;;;;;;;;-3276.30;93.70;;;;;;4946811;29;20331;-84
2022/02/12 07:57:40;;;;;;;;;;;-3276.40;93.80;;;;;;4945956;28;19957;-83
2022/02/12 08:00:06;;;;;;;;;;;-3276.60;93.60;;;;;;4928845;29;20280;-83
2022/02/12 08:02:32;;;;;;;;;;;-3276.50;93.30;;;;;;4925153;29;20356;-84
2022/02/12 08:04:57;;;;;;;;;;;-3276.70;93.40;;;;;;4930650;29;19939;-84
2022/02/12 08:07:29;;;;;;;;;;;0.00;93.20;;;;;;4939020;29;19911;-84
2022/02/12 08:11:22;;;;;;;;;;;0.00;93.00;;;;;;4932165;29;19915;-85
2022/02/12 08:12:47;;;;;;;;;;;0.00;92.40;;;;;;4919865;29;20355;-84
2022/02/12 08:15:13;;;;;;;;;;;0.10;92.00;;;;;;4933803;28;19963;-84
2022/02/12 08:17:38;;;;;;;;;;;0.10;91.70;;;;;;4930292;29;20359;-85
2022/02/12 08:20:04;;;;;;;;;;;0.30;91.90;;;;;;4931982;29;19965;-85
2022/02/12 08:22:29;;;;;;;;;;;0.30;91.10;;;;;;4930949;29;19903;-86
2022/02/12 08:24:55;;;;;;;;;;;0.40;90.60;;;;;;4934216;29;19910;-86
2022/02/12 08:27:22;;;;;;;;;;;0.40;89.80;;;;;;4930994;29;19915;-86
2022/02/12 08:29:48;;;;;;;;;;;0.40;89.80;;;;;;4930918;29;20351;-86
2022/02/12 08:32:14;;;;;;;;;;;0.40;89.60;;;;;;4934557;29;19919;-86
2022/02/12 08:34:42;;;;;;;;;;;0.50;89.50;;;;;;4934662;29;20276;-86
2022/02/12 08:37:07;;;;;;;;;;;0.60;89.00;;;;;;4927581;29;19917;-85
2022/02/12 08:39:33;;;;;;;;;;;0.60;88.60;;;;;;4933483;29;20536;-85
2022/02/12 08:41:58;;;;;;;;;;;0.80;88.90;;;;;;4928447;29;20264;-85
2022/02/12 08:44:24;;;;;;;;;;;0.90;88.60;;;;;;4936152;29;19925;-84
2022/02/12 08:46:49;;;;;;;;;;;1.00;87.70;;;;;;4933049;29;20085;-84
2022/02/12 08:49:14;;;;;;;;;;;1.10;87.40;;;;;;4932307;29;20307;-85
2022/02/12 08:51:40;;;;;;;;;;;1.40;87.80;;;;;;4939541;29;20005;-85
2022/02/12 08:54:10;;;;;;;;;;;1.50;87.20;;;;;;4934345;29;20011;-85
2022/02/12 08:56:37;;;;;;;;;;;1.60;86.00;;;;;;4931517;29;19915;-84
2022/02/12 08:59:03;;;;;;;;;;;1.70;85.60;;;;;;4930337;29;19911;-85
2022/02/12 09:01:29;;;;;;;;;;;1.70;84.80;;;;;;4925078;29;19918;-85
2022/02/12 09:03:55;;;;;;;;;;;1.70;84.10;;;;;;4938871;28;19919;-85
2022/02/12 09:06:20;;;;;;;;;;;1.70;84.20;;;;;;4927516;29;20367;-85
2022/02/12 09:08:51;;;;;;;;;;;1.80;83.50;;;;;;4926392;29;19911;-85
2022/02/12 09:11:20;;;;;;;;;;;1.80;83.40;;;;;;4927752;29;19953;-85
2022/02/12 09:13:46;;;;;;;;;;;1.90;83.60;;;;;;4928043;29;20454;-85
2022/02/12 09:16:12;;;;;;;;;;;2.00;83.00;;;;;;4930297;29;19962;-85
2022/02/12 09:18:38;;;;;;;;;;;2.10;82.40;;;;;;4932570;29;20328;-86
2022/02/12 09:21:03;;;;;;;;;;;2.10;81.60;;;;;;4924801;29;20001;-86
2022/02/12 09:23:29;;;;;;;;;;;2.30;81.30;;;;;;4927244;29;19994;-85
2022/02/12 09:25:54;;;;;;;;;;;2.30;81.60;;;;;;4932694;29;20024;-85
2022/02/12 09:28:20;;;;;;;;;;;2.40;81.30;;;;;;4928838;29;20608;-86
2022/02/12 09:30:45;;;;;;;;;;;2.50;80.70;;;;;;4935559;29;19917;-85
2022/02/12 09:33:11;;;;;;;;;;;2.50;79.90;;;;;;4931568;29;19911;-85
2022/02/12 09:35:36;;;;;;;;;;;2.60;79.60;;;;;;4926965;29;19930;-85
2022/02/12 09:38:02;;;;;;;;;;;2.60;78.80;;;;;;4927129;29;19918;-85
2022/02/12 09:40:28;;;;;;;;;;;2.70;79.20;;;;;;4922304;29;20303;-85
2022/02/12 09:42:53;;;;;;;;;;;2.70;78.00;;;;;;4940698;29;19911;-85
2022/02/12 09:45:20;;;;;;;;;;;2.80;78.70;;;;;;4929943;29;20271;-85
2022/02/12 09:47:47;;;;;;;;;;;2.90;78.50;;;;;;4933065;29;20012;-85
2022/02/12 09:50:13;;;;;;;;;;;3.00;78.20;;;;;;4930413;29;19962;-85
2022/02/12 09:52:45;;;;;;;;;;;3.00;78.10;;;;;;4959130;28;19915;-85
2022/02/12 09:55:11;;;;;;;;;;;3.00;77.40;;;;;;4922459;29;19978;-85
2022/02/12 09:57:37;;;;;;;;;;;3.10;76.90;;;;;;4922810;29;19918;-85
2022/02/12 10:00:04;;;;;;;;;;;2.90;75.90;;;;;;4929171;29;19914;-85
2022/02/12 10:02:30;;;;;;;;;;;3.10;76.30;;;;;;4947797;28;19918;-85
2022/02/12 10:05:14;;;;;;;;;;;3.30;77.30;;;;;;4920207;29;19911;-86
2022/02/12 10:07:39;;;;;;;;;;;3.20;75.00;;;;;;4936402;29;19910;-85
2022/02/12 10:10:15;;;;;;;;;;;3.40;75.70;;;;;;4933557;29;19925;-85
2022/02/12 10:12:40;;;;;;;;;;;3.50;75.80;;;;;;4933554;29;20458;-85
2022/02/12 10:15:32;;;;;;;;;;;3.60;74.10;;;;;;4923114;29;19915;-85
2022/02/12 10:17:59;;;;;;;;;;;3.70;74.00;;;;;;4927105;29;19962;-84
2022/02/12 10:20:25;;;;;;;;;;;4.00;73.50;;;;;;4930418;29;19922;-85
2022/02/12 10:22:52;;;;;;;;;;;3.90;72.10;;;;;;4921296;29;19921;-85
2022/02/12 10:25:18;;;;;;;;;;;3.90;72.30;;;;;;4946811;29;19961;-85
2022/02/12 10:27:44;;;;;;;;;;;4.00;71.90;;;;;;4932111;29;19910;-85
2022/02/12 10:30:09;;;;;;;;;;;4.00;71.70;;;;;;4942166;28;19938;-85
2022/02/12 10:32:36;;;;;;;;;;;4.10;72.00;;;;;;4924935;29;19918;-85
2022/02/12 10:35:07;;;;;;;;;;;4.00;70.20;;;;;;4925794;29;19915;-84
2022/02/12 10:37:39;;;;;;;;;;;4.10;71.50;;;;;;4930959;29;19911;-85
2022/02/12 10:40:06;;;;;;;;;;;4.20;71.50;;;;;;4931161;29;19914;-85
2022/02/12 10:42:31;;;;;;;;;;;4.10;70.90;;;;;;4927208;29;19911;-85
2022/02/12 10:44:57;;;;;;;;;;;4.00;71.10;;;;;;4928985;29;20497;-84
2022/02/12 10:47:23;;;;;;;;;;;4.10;71.00;;;;;;4944357;29;20085;-85
2022/02/12 10:49:49;;;;;;;;;;;4.10;69.90;;;;;;4930677;29;19918;-85
2022/02/12 10:52:16;;;;;;;;;;;4.00;69.60;;;;;;4928435;29;20452;-85
2022/02/12 10:54:46;;;;;;;;;;;4.00;70.50;;;;;;4927655;29;19919;-85
2022/02/12 10:57:12;;;;;;;;;;;4.10;69.20;;;;;;4926057;29;19915;-86
2022/02/12 10:59:41;;;;;;;;;;;4.10;68.70;;;;;;4923661;29;19926;-86
2022/02/12 11:02:15;;;;;;;;;;;4.20;68.80;;;;;;4941073;29;19915;-85
2022/02/12 11:04:41;;;;;;;;;;;4.20;69.30;;;;;;4939904;29;20686;-85
2022/02/12 11:07:18;;;;;;;;;;;4.50;69.40;;;;;;4922215;29;20284;-86
2022/02/12 11:09:44;;;;;;;;;;;4.60;70.10;;;;;;4926576;29;19918;-85
2022/02/12 11:12:10;;;;;;;;;;;4.70;68.10;;;;;;4925892;29;19911;-85
2022/02/12 11:14:36;;;;;;;;;;;4.70;68.50;;;;;;4925692;28;19918;-85
2022/02/12 11:17:22;;;;;;;;;;;4.80;67.80;;;;;;4925590;29;20310;-85
2022/02/12 11:19:48;;;;;;;;;;;4.70;67.40;;;;;;4941321;28;20366;-85
2022/02/12 11:22:14;;;;;;;;;;;4.80;65.90;;;;;;4940042;28;19949;-85
2022/02/12 11:24:40;;;;;;;;;;;5.00;68.80;;;;;;4928452;29;19957;-85
2022/02/12 11:27:19;;;;;;;;;;;5.00;67.80;;;;;;4927138;29;19950;-85
2022/02/12 11:29:45;;;;;;;;;;;5.10;68.00;;;;;;4924582;29;20331;-86
2022/02/12 11:32:22;;;;;;;;;;;5.00;66.50;;;;;;4927662;29;20009;-85
2022/02/12 11:35:08;;;;;;;;;;;5.10;65.90;;;;;;4928024;29;19911;-85
2022/02/12 11:37:36;;;;;;;;;;;5.10;66.20;;;;;;4930422;29;20371;-85
2022/02/12 11:40:22;;;;;;;;;;;5.40;64.60;;;;;;4915479;29;19997;-86
2022/02/12 11:42:56;;;;;;;;;;;5.20;63.70;;;;;;4945693;28;19915;-85
2022/02/12 11:45:41;;;;;;;;;;;5.40;65.20;;;;;;4929623;29;19958;-85
2022/02/12 11:48:10;;;;;;;;;;;5.60;64.60;;;;;;4924953;29;19911;-85
2022/02/12 11:50:43;;;;;;;;;;;5.80;64.30;;;;;;4934386;29;20430;-85
2022/02/12 11:53:28;;;;;;;;;;;5.80;63.30;;;;;;4932685;29;19985;-86
2022/02/12 11:55:53;;;;;;;;;;;6.00;62.40;;;;;;4932935;29;20324;-86
2022/02/12 11:58:22;;;;;;;;;;;5.60;61.70;;;;;;4934521;29;19930;-86
2022/02/12 12:00:47;;;;;;;;;;;5.50;62.50;;;;;;4931910;29;19911;-86
2022/02/12 12:03:13;;;;;;;;;;;5.60;62.20;;;;;;4930875;29;19915;-86
2022/02/12 12:05:38;;;;;;;;;;;5.60;61.00;;;;;;4945180;29;20009;-86
2022/02/12 12:08:06;;;;;;;;;;;5.80;60.40;;;;;;4926733;29;19922;-86
2022/02/12 12:10:34;;;;;;;;;;;6.00;60.90;;;;;;4929741;29;19911;-86
2022/02/12 12:13:00;;;;;;;;;;;5.90;59.10;;;;;;4926624;29;19918;-86
2022/02/12 12:15:26;;;;;;;;;;;6.10;57.20;;;;;;4947904;29;20268;-86
2022/02/12 12:18:00;;;;;;;;;;;6.40;60.30;;;;;;4931656;29;19917;-86
2022/02/12 12:20:51;;;;;;;;;;;6.20;57.00;;;;;;4926089;29;19926;-86
2022/02/12 12:23:17;;;;;;;;;;;6.50;56.80;;;;;;4926453;29;20319;-86
2022/02/12 12:25:49;;;;;;;;;;;6.70;56.90;;;;;;4935005;28;19911;-86
2022/02/12 12:31:34;;;;;;;;;;;6.60;54.40;;;;;;4881092;29;19922;-86
2022/02/12 12:34:06;;;;;;;;;;;6.60;53.80;;;;;;4926905;29;19910;-86
2022/02/12 12:36:36;;;;;;;;;;;6.90;53.10;;;;;;4935015;29;20317;-86
2022/02/12 12:39:08;;;;;;;;;;;7.00;53.50;;;;;;4930793;29;20371;-85
2022/02/12 12:41:38;;;;;;;;;;;6.70;54.10;;;;;;4930893;29;19914;-86
2022/02/12 12:44:04;;;;;;;;;;;6.90;55.30;;;;;;4930917;29;20383;-86
2022/02/12 12:46:30;;;;;;;;;;;6.80;53.90;;;;;;4930110;29;20347;-86
2022/02/12 12:48:55;;;;;;;;;;;7.00;53.60;;;;;;4925972;29;19911;-86
2022/02/12 12:51:21;;;;;;;;;;;7.10;54.70;;;;;;4934469;29;19942;-86
2022/02/12 12:53:46;;;;;;;;;;;7.10;52.70;;;;;;4933899;29;19974;-87
2022/02/12 12:56:21;;;;;;;;;;;6.80;53.70;;;;;;4928797;29;20006;-86
2022/02/12 12:59:00;;;;;;;;;;;6.60;52.60;;;;;;4931653;29;19911;-86
2022/02/12 13:01:25;;;;;;;;;;;6.70;53.30;;;;;;4931907;29;19911;-85
2022/02/12 13:03:50;;;;;;;;;;;6.60;53.90;;;;;;4936224;29;19969;-86
2022/02/12 13:06:16;;;;;;;;;;;6.10;52.90;;;;;;4942449;29;20339;-85
2022/02/12 13:08:42;;;;;;;;;;;5.80;54.30;;;;;;4923033;29;19926;-85
2022/02/12 13:11:09;;;;;;;;;;;5.90;54.40;;;;;;4932760;29;20062;-86
2022/02/12 13:13:35;;;;;;;;;;;6.30;53.90;;;;;;4932203;29;19926;-86
2022/02/12 13:16:07;;;;;;;;;;;6.70;54.40;;;;;;4928391;29;20359;-86
2022/02/12 13:18:33;;;;;;;;;;;6.80;52.40;;;;;;4933077;29;19911;-86
2022/02/12 13:21:09;;;;;;;;;;;6.70;52.40;;;;;;4933176;29;19938;-87
2022/02/12 13:23:34;;;;;;;;;;;7.00;53.20;;;;;;4920834;29;19950;-86
2022/02/12 13:26:00;;;;;;;;;;;6.80;52.60;;;;;;4931916;29;20480;-86
2022/02/12 13:28:25;;;;;;;;;;;7.00;53.30;;;;;;4930686;29;19946;-86
2022/02/12 13:30:51;;;;;;;;;;;6.90;51.80;;;;;;4921457;29;19910;-87
2022/02/12 13:33:24;;;;;;;;;;;6.80;50.40;;;;;;4928046;29;20086;-87
2022/02/12 13:35:51;;;;;;;;;;;7.00;52.10;;;;;;4938128;29;19925;-87
2022/02/12 13:38:18;;;;;;;;;;;6.90;51.40;;;;;;4934582;29;19914;-87
2022/02/12 13:40:43;;;;;;;;;;;7.10;51.00;;;;;;4932194;29;20004;-87
2022/02/12 13:43:17;;;;;;;;;;;7.20;51.00;;;;;;4928331;29;20438;-87
2022/02/12 13:45:43;;;;;;;;;;;7.20;50.80;;;;;;4931352;29;20444;-87
2022/02/12 13:48:09;;;;;;;;;;;6.90;49.90;;;;;;4930877;29;20011;-87
2022/02/12 13:50:39;;;;;;;;;;;7.00;52.30;;;;;;4919607;29;19927;-86
2022/02/12 13:53:10;;;;;;;;;;;7.10;51.60;;;;;;4931175;29;19933;-86
2022/02/12 13:55:55;;;;;;;;;;;7.80;51.60;;;;;;4935795;29;20021;-86
2022/02/12 13:58:24;;;;;;;;;;;8.00;51.70;;;;;;4928714;29;19914;-84
2022/02/12 14:00:50;;;;;;;;;;;8.10;51.00;;;;;;4942625;29;20311;-84
2022/02/12 14:03:33;;;;;;;;;;;7.90;51.60;;;;;;4944815;29;20382;-84
2022/02/12 14:05:58;;;;;;;;;;;7.50;50.60;;;;;;4932376;29;20207;-85
2022/02/12 14:08:24;;;;;;;;;;;8.10;50.60;;;;;;4933231;29;20299;-84
2022/02/12 14:10:50;;;;;;;;;;;8.50;50.60;;;;;;4932484;29;19933;-84